sensor_id;sensor_type;location;lat;lon;timestamp;pressure;altitude;pressure_sealevel;temperature;humidity
35647;BME280;28680;45.642;13.756;2023-08-07T00:01:14;100598.97;;;18.95;100.00
35647;BME280;28680;45.642;13.756;2023-08-07T00:03:40;100587.84;;;18.91;100.00
35647;BME280;28680;45.642;13.756;2023-08-07T00:06:06;100573.13;;;18.80;100.00
35647;BME280;28680;45.642;13.756;2023-08-07T00:08:31;100553.75;;;18.72;100.00
35647;BME280;28680;45.642;13.756;2023-08-07T00:11:07;100550.50;;;18.61;100.00
35647;BME280;28680;45.642;13.756;2023-08-07T00:13:34;100544.19;;;18.62;100.00
35647;BME280;28680;45.642;13.756;2023-08-07T00:16:00;100538.97;;;18.69;100.00
35647;BME280;28680;45.642;13.756;2023-08-07T00:18:26;100537.44;;;18.51;100.00
35647;BME280;28680;45.642;13.756;2023-08-07T00:20:52;100524.72;;;18.62;100.00
35647;BME280;28680;45.642;13.756;2023-08-07T00:23:18;100535.91;;;18.57;100.00
35647;BME280;28680;45.642;13.756;2023-08-07T00:25:44;100539.94;;;18.53;100.00
35647;BME280;28680;45.642;13.756;2023-08-07T00:28:10;100539.38;;;18.58;100.00
35647;BME280;28680;45.642;13.756;2023-08-07T00:30:35;100546.06;;;18.54;100.00
35647;BME280;28680;45.642;13.756;2023-08-07T00:33:02;100548.81;;;18.37;100.00
35647;BME280;28680;45.642;13.756;2023-08-07T00:35:28;100547.41;;;18.26;100.00
35647;BME280;28680;45.642;13.756;2023-08-07T00:37:54;100546.94;;;18.23;100.00
35647;BME280;28680;45.642;13.756;2023-08-07T00:40:21;100537.13;;;18.23;100.00
35647;BME280;28680;45.642;13.756;2023-08-07T00:42:47;100537.59;;;18.27;100.00
35647;BME280;28680;45.642;13.756;2023-08-07T00:45:14;100533.59;;;18.31;100.00
35647;BME280;28680;45.642;13.756;2023-08-07T00:47:40;100541.63;;;18.23;100.00
35647;BME280;28680;45.642;13.756;2023-08-07T00:50:08;100535.28;;;18.24;100.00
35647;BME280;28680;45.642;13.756;2023-08-07T00:52:34;100538.00;;;18.16;100.00
35647;BME280;28680;45.642;13.756;2023-08-07T00:55:00;100536.53;;;18.13;100.00
35647;BME280;28680;45.642;13.756;2023-08-07T00:57:26;100539.53;;;18.10;100.00
35647;BME280;28680;45.642;13.756;2023-08-07T00:59:53;100537.91;;;18.01;100.00
35647;BME280;28680;45.642;13.756;2023-08-07T01:02:19;100538.22;;;18.06;100.00
35647;BME280;28680;45.642;13.756;2023-08-07T01:04:46;100539.75;;;18.00;100.00
35647;BME280;28680;45.642;13.756;2023-08-07T01:07:12;100543.75;;;17.96;100.00
35647;BME280;28680;45.642;13.756;2023-08-07T01:09:38;100546.88;;;18.00;100.00
35647;BME280;28680;45.642;13.756;2023-08-07T01:12:19;100542.63;;;17.90;100.00
35647;BME280;28680;45.642;13.756;2023-08-07T01:15:04;100539.25;;;17.97;100.00
35647;BME280;28680;45.642;13.756;2023-08-07T01:17:35;100544.69;;;18.03;100.00
35647;BME280;28680;45.642;13.756;2023-08-07T01:20:02;100543.31;;;18.16;100.00
35647;BME280;28680;45.642;13.756;2023-08-07T01:22:30;100546.28;;;18.21;100.00
35647;BME280;28680;45.642;13.756;2023-08-07T01:24:56;100544.69;;;18.35;100.00
35647;BME280;28680;45.642;13.756;2023-08-07T01:27:44;100544.75;;;18.49;100.00
35647;BME280;28680;45.642;13.756;2023-08-07T01:30:47;100545.31;;;18.68;100.00
35647;BME280;28680;45.642;13.756;2023-08-07T01:33:47;100555.19;;;18.82;100.00
35647;BME280;28680;45.642;13.756;2023-08-07T01:36:14;100546.31;;;18.90;100.00
35647;BME280;28680;45.642;13.756;2023-08-07T01:38:42;100540.06;;;18.83;100.00
35647;BME280;28680;45.642;13.756;2023-08-07T01:41:09;100534.41;;;18.78;100.00
35647;BME280;28680;45.642;13.756;2023-08-07T01:43:35;100535.78;;;18.74;100.00
35647;BME280;28680;45.642;13.756;2023-08-07T01:46:02;100534.03;;;18.66;100.00
35647;BME280;28680;45.642;13.756;2023-08-07T01:48:28;100539.09;;;18.53;100.00
35647;BME280;28680;45.642;13.756;2023-08-07T01:50:54;100541.28;;;18.49;100.00
35647;BME280;28680;45.642;13.756;2023-08-07T01:53:21;100540.16;;;18.43;100.00
35647;BME280;28680;45.642;13.756;2023-08-07T01:55:47;100536.88;;;18.33;100.00
35647;BME280;28680;45.642;13.756;2023-08-07T01:58:13;100538.91;;;18.31;100.00
35647;BME280;28680;45.642;13.756;2023-08-07T02:00:39;100544.38;;;18.29;100.00
35647;BME280;28680;45.642;13.756;2023-08-07T02:03:08;100545.03;;;18.31;100.00
35647;BME280;28680;45.642;13.756;2023-08-07T02:05:34;100546.22;;;18.52;100.00
35647;BME280;28680;45.642;13.756;2023-08-07T02:08:01;100550.00;;;18.58;100.00
35647;BME280;28680;45.642;13.756;2023-08-07T02:10:27;100553.78;;;18.63;100.00
35647;BME280;28680;45.642;13.756;2023-08-07T02:12:53;100556.22;;;18.73;100.00
35647;BME280;28680;45.642;13.756;2023-08-07T02:15:20;100564.78;;;18.60;100.00
35647;BME280;28680;45.642;13.756;2023-08-07T02:17:50;100558.47;;;18.61;100.00
35647;BME280;28680;45.642;13.756;2023-08-07T02:20:16;100560.47;;;18.59;100.00
35647;BME280;28680;45.642;13.756;2023-08-07T02:22:42;100565.69;;;18.53;100.00
35647;BME280;28680;45.642;13.756;2023-08-07T02:25:08;100565.69;;;18.53;100.00
35647;BME280;28680;45.642;13.756;2023-08-07T02:27:36;100562.72;;;18.47;100.00
35647;BME280;28680;45.642;13.756;2023-08-07T02:30:05;100566.72;;;18.43;100.00
35647;BME280;28680;45.642;13.756;2023-08-07T02:32:32;100573.75;;;18.36;100.00
35647;BME280;28680;45.642;13.756;2023-08-07T02:34:58;100564.56;;;18.47;100.00
35647;BME280;28680;45.642;13.756;2023-08-07T02:37:24;100560.72;;;18.49;100.00
35647;BME280;28680;45.642;13.756;2023-08-07T02:39:50;100562.66;;;18.56;100.00
35647;BME280;28680;45.642;13.756;2023-08-07T02:42:17;100563.59;;;18.40;100.00
35647;BME280;28680;45.642;13.756;2023-08-07T02:44:42;100568.84;;;18.25;100.00
35647;BME280;28680;45.642;13.756;2023-08-07T02:47:08;100565.03;;;18.19;100.00
35647;BME280;28680;45.642;13.756;2023-08-07T02:49:34;100565.75;;;18.13;100.00
35647;BME280;28680;45.642;13.756;2023-08-07T02:52:01;100564.94;;;18.04;100.00
35647;BME280;28680;45.642;13.756;2023-08-07T02:54:27;100575.72;;;18.03;100.00
35647;BME280;28680;45.642;13.756;2023-08-07T02:56:53;100568.13;;;18.00;100.00
35647;BME280;28680;45.642;13.756;2023-08-07T02:59:19;100574.03;;;18.10;100.00
35647;BME280;28680;45.642;13.756;2023-08-07T03:01:45;100565.84;;;18.20;100.00
35647;BME280;28680;45.642;13.756;2023-08-07T03:04:11;100563.81;;;18.30;100.00
35647;BME280;28680;45.642;13.756;2023-08-07T03:06:37;100570.28;;;18.36;100.00
35647;BME280;28680;45.642;13.756;2023-08-07T03:09:03;100570.28;;;18.36;100.00
35647;BME280;28680;45.642;13.756;2023-08-07T03:11:29;100575.91;;;18.33;100.00
35647;BME280;28680;45.642;13.756;2023-08-07T03:13:55;100576.47;;;18.28;100.00
35647;BME280;28680;45.642;13.756;2023-08-07T03:16:21;100578.97;;;18.21;100.00
35647;BME280;28680;45.642;13.756;2023-08-07T03:18:47;100578.81;;;18.23;100.00
35647;BME280;28680;45.642;13.756;2023-08-07T03:21:13;100580.44;;;18.24;100.00
35647;BME280;28680;45.642;13.756;2023-08-07T03:23:40;100584.75;;;18.25;100.00
35647;BME280;28680;45.642;13.756;2023-08-07T03:26:11;100586.28;;;18.19;100.00
35647;BME280;28680;45.642;13.756;2023-08-07T03:28:40;100582.34;;;18.15;100.00
35647;BME280;28680;45.642;13.756;2023-08-07T03:31:06;100589.97;;;18.10;100.00
35647;BME280;28680;45.642;13.756;2023-08-07T03:33:35;100576.22;;;18.06;100.00
35647;BME280;28680;45.642;13.756;2023-08-07T03:36:01;100584.00;;;18.08;100.00
35647;BME280;28680;45.642;13.756;2023-08-07T03:38:27;100581.03;;;18.11;100.00
35647;BME280;28680;45.642;13.756;2023-08-07T03:40:55;100587.31;;;18.10;100.00
35647;BME280;28680;45.642;13.756;2023-08-07T03:43:21;100589.66;;;18.05;100.00
35647;BME280;28680;45.642;13.756;2023-08-07T03:45:56;100588.69;;;18.06;100.00
35647;BME280;28680;45.642;13.756;2023-08-07T03:48:25;100595.81;;;18.05;100.00
35647;BME280;28680;45.642;13.756;2023-08-07T03:50:51;100599.63;;;18.03;100.00
35647;BME280;28680;45.642;13.756;2023-08-07T03:53:18;100591.84;;;18.01;100.00
35647;BME280;28680;45.642;13.756;2023-08-07T03:55:53;100592.31;;;18.05;100.00
35647;BME280;28680;45.642;13.756;2023-08-07T03:58:22;100582.34;;;18.07;100.00
35647;BME280;28680;45.642;13.756;2023-08-07T04:00:48;100585.66;;;18.09;100.00
35647;BME280;28680;45.642;13.756;2023-08-07T04:03:16;100582.19;;;18.08;100.00
35647;BME280;28680;45.642;13.756;2023-08-07T04:05:42;100573.56;;;18.06;100.00
35647;BME280;28680;45.642;13.756;2023-08-07T04:08:08;100581.38;;;18.08;100.00
35647;BME280;28680;45.642;13.756;2023-08-07T04:10:34;100579.03;;;18.05;100.00
35647;BME280;28680;45.642;13.756;2023-08-07T04:13:00;100583.53;;;18.04;100.00
35647;BME280;28680;45.642;13.756;2023-08-07T04:15:26;100586.72;;;17.91;100.00
35647;BME280;28680;45.642;13.756;2023-08-07T04:17:54;100587.22;;;17.79;100.00
35647;BME280;28680;45.642;13.756;2023-08-07T04:20:20;100599.88;;;17.68;100.00
35647;BME280;28680;45.642;13.756;2023-08-07T04:22:46;100595.25;;;17.62;100.00
35647;BME280;28680;45.642;13.756;2023-08-07T04:25:12;100596.44;;;17.51;100.00
35647;BME280;28680;45.642;13.756;2023-08-07T04:27:38;100597.09;;;17.53;100.00
35647;BME280;28680;45.642;13.756;2023-08-07T04:30:06;100596.75;;;17.48;100.00
35647;BME280;28680;45.642;13.756;2023-08-07T04:32:32;100601.25;;;17.48;100.00
35647;BME280;28680;45.642;13.756;2023-08-07T04:34:58;100597.28;;;17.44;100.00
35647;BME280;28680;45.642;13.756;2023-08-07T04:37:24;100592.16;;;17.42;100.00
35647;BME280;28680;45.642;13.756;2023-08-07T04:39:50;100597.75;;;17.56;100.00
35647;BME280;28680;45.642;13.756;2023-08-07T04:42:16;100592.75;;;17.69;100.00
35647;BME280;28680;45.642;13.756;2023-08-07T04:44:42;100598.06;;;17.69;100.00
35647;BME280;28680;45.642;13.756;2023-08-07T04:47:08;100605.06;;;17.62;100.00
35647;BME280;28680;45.642;13.756;2023-08-07T04:49:34;100595.22;;;17.70;100.00
35647;BME280;28680;45.642;13.756;2023-08-07T04:52:00;100598.22;;;17.76;100.00
35647;BME280;28680;45.642;13.756;2023-08-07T04:54:27;100595.38;;;17.85;100.00
35647;BME280;28680;45.642;13.756;2023-08-07T04:56:53;100593.38;;;17.87;100.00
35647;BME280;28680;45.642;13.756;2023-08-07T04:59:19;100595.53;;;17.92;100.00
35647;BME280;28680;45.642;13.756;2023-08-07T05:01:45;100592.03;;;17.83;100.00
35647;BME280;28680;45.642;13.756;2023-08-07T05:04:11;100592.22;;;17.90;100.00
35647;BME280;28680;45.642;13.756;2023-08-07T05:06:37;100599.50;;;17.96;100.00
35647;BME280;28680;45.642;13.756;2023-08-07T05:09:03;100589.72;;;17.97;100.00
35647;BME280;28680;45.642;13.756;2023-08-07T05:11:29;100602.38;;;17.86;100.00
35647;BME280;28680;45.642;13.756;2023-08-07T05:13:55;100600.00;;;17.83;100.00
35647;BME280;28680;45.642;13.756;2023-08-07T05:16:21;100607.16;;;17.91;100.00
35647;BME280;28680;45.642;13.756;2023-08-07T05:18:49;100615.59;;;17.95;100.00
35647;BME280;28680;45.642;13.756;2023-08-07T05:21:15;100608.94;;;17.99;100.00
35647;BME280;28680;45.642;13.756;2023-08-07T05:23:41;100610.78;;;17.98;100.00
35647;BME280;28680;45.642;13.756;2023-08-07T05:26:07;100610.25;;;18.03;100.00
35647;BME280;28680;45.642;13.756;2023-08-07T05:28:33;100611.06;;;18.03;100.00
35647;BME280;28680;45.642;13.756;2023-08-07T05:31:00;100614.06;;;18.08;100.00
35647;BME280;28680;45.642;13.756;2023-08-07T05:33:26;100612.53;;;18.14;100.00
35647;BME280;28680;45.642;13.756;2023-08-07T05:35:54;100613.72;;;18.11;100.00
35647;BME280;28680;45.642;13.756;2023-08-07T05:38:21;100618.00;;;18.12;100.00
35647;BME280;28680;45.642;13.756;2023-08-07T05:40:47;100615.50;;;18.19;100.00
35647;BME280;28680;45.642;13.756;2023-08-07T05:43:13;100619.81;;;18.20;100.00
35647;BME280;28680;45.642;13.756;2023-08-07T05:45:45;100625.13;;;18.20;100.00
35647;BME280;28680;45.642;13.756;2023-08-07T05:48:12;100622.94;;;18.24;100.00
35647;BME280;28680;45.642;13.756;2023-08-07T05:50:38;100625.25;;;18.27;100.00
35647;BME280;28680;45.642;13.756;2023-08-07T05:53:04;100628.41;;;18.30;100.00
35647;BME280;28680;45.642;13.756;2023-08-07T05:55:30;100620.56;;;18.37;100.00
35647;BME280;28680;45.642;13.756;2023-08-07T05:57:56;100624.53;;;18.41;100.00
35647;BME280;28680;45.642;13.756;2023-08-07T06:00:22;100629.66;;;18.43;100.00
35647;BME280;28680;45.642;13.756;2023-08-07T06:02:47;100622.88;;;18.40;100.00
35647;BME280;28680;45.642;13.756;2023-08-07T06:05:16;100629.97;;;18.48;100.00
35647;BME280;28680;45.642;13.756;2023-08-07T06:07:43;100632.13;;;18.53;100.00
35647;BME280;28680;45.642;13.756;2023-08-07T06:10:09;100632.56;;;18.56;100.00
35647;BME280;28680;45.642;13.756;2023-08-07T06:12:36;100628.22;;;18.63;100.00
35647;BME280;28680;45.642;13.756;2023-08-07T06:15:02;100633.84;;;18.68;100.00
35647;BME280;28680;45.642;13.756;2023-08-07T06:17:28;100629.13;;;18.79;100.00
35647;BME280;28680;45.642;13.756;2023-08-07T06:19:54;100630.47;;;18.83;100.00
35647;BME280;28680;45.642;13.756;2023-08-07T06:22:51;100626.44;;;18.87;100.00
35647;BME280;28680;45.642;13.756;2023-08-07T06:25:17;100634.34;;;18.95;100.00
35647;BME280;28680;45.642;13.756;2023-08-07T06:27:45;100624.03;;;19.00;100.00
35647;BME280;28680;45.642;13.756;2023-08-07T06:30:12;100627.16;;;19.04;100.00
35647;BME280;28680;45.642;13.756;2023-08-07T06:32:39;100632.06;;;19.15;100.00
35647;BME280;28680;45.642;13.756;2023-08-07T06:35:06;100638.13;;;19.24;100.00
35647;BME280;28680;45.642;13.756;2023-08-07T06:37:32;100638.59;;;19.27;100.00
35647;BME280;28680;45.642;13.756;2023-08-07T06:39:58;100645.03;;;19.33;100.00
35647;BME280;28680;45.642;13.756;2023-08-07T06:42:24;100646.13;;;19.39;100.00
35647;BME280;28680;45.642;13.756;2023-08-07T06:44:50;100643.41;;;19.47;100.00
35647;BME280;28680;45.642;13.756;2023-08-07T06:47:16;100654.63;;;19.57;100.00
35647;BME280;28680;45.642;13.756;2023-08-07T06:49:42;100643.25;;;19.63;100.00
35647;BME280;28680;45.642;13.756;2023-08-07T06:52:08;100652.97;;;19.71;100.00
35647;BME280;28680;45.642;13.756;2023-08-07T06:54:34;100654.59;;;19.80;100.00
35647;BME280;28680;45.642;13.756;2023-08-07T06:57:00;100650.75;;;19.83;100.00
35647;BME280;28680;45.642;13.756;2023-08-07T06:59:26;100660.03;;;19.87;100.00
35647;BME280;28680;45.642;13.756;2023-08-07T07:01:52;100656.63;;;19.93;100.00
35647;BME280;28680;45.642;13.756;2023-08-07T07:04:18;100659.56;;;20.13;100.00
35647;BME280;28680;45.642;13.756;2023-08-07T07:06:44;100665.94;;;20.49;100.00
35647;BME280;28680;45.642;13.756;2023-08-07T07:09:10;100662.63;;;20.61;100.00
35647;BME280;28680;45.642;13.756;2023-08-07T07:11:36;100664.34;;;20.54;100.00
35647;BME280;28680;45.642;13.756;2023-08-07T07:14:03;100663.81;;;20.59;100.00
35647;BME280;28680;45.642;13.756;2023-08-07T07:16:29;100666.47;;;20.74;100.00
35647;BME280;28680;45.642;13.756;2023-08-07T07:18:55;100668.91;;;20.75;100.00
35647;BME280;28680;45.642;13.756;2023-08-07T07:21:23;100664.81;;;20.73;100.00
35647;BME280;28680;45.642;13.756;2023-08-07T07:23:49;100665.97;;;20.85;100.00
35647;BME280;28680;45.642;13.756;2023-08-07T07:26:15;100668.97;;;20.97;100.00
35647;BME280;28680;45.642;13.756;2023-08-07T07:28:41;100672.94;;;21.08;100.00
35647;BME280;28680;45.642;13.756;2023-08-07T07:31:07;100675.69;;;21.14;100.00
35647;BME280;28680;45.642;13.756;2023-08-07T07:33:37;100677.22;;;21.23;100.00
35647;BME280;28680;45.642;13.756;2023-08-07T07:36:05;100689.78;;;21.30;100.00
35647;BME280;28680;45.642;13.756;2023-08-07T07:38:32;100688.97;;;21.29;100.00
35647;BME280;28680;45.642;13.756;2023-08-07T07:40:58;100693.94;;;21.32;100.00
35647;BME280;28680;45.642;13.756;2023-08-07T07:43:25;100689.06;;;21.42;100.00
35647;BME280;28680;45.642;13.756;2023-08-07T07:45:51;100699.63;;;21.51;100.00
35647;BME280;28680;45.642;13.756;2023-08-07T07:48:17;100701.75;;;21.55;100.00
35647;BME280;28680;45.642;13.756;2023-08-07T07:50:43;100700.34;;;21.59;100.00
35647;BME280;28680;45.642;13.756;2023-08-07T07:53:09;100705.03;;;21.57;100.00
35647;BME280;28680;45.642;13.756;2023-08-07T07:55:35;100705.34;;;21.69;100.00
35647;BME280;28680;45.642;13.756;2023-08-07T07:58:03;100702.63;;;21.63;100.00
35647;BME280;28680;45.642;13.756;2023-08-07T08:00:29;100707.56;;;21.66;100.00
35647;BME280;28680;45.642;13.756;2023-08-07T08:02:55;100711.75;;;21.75;100.00
35647;BME280;28680;45.642;13.756;2023-08-07T08:05:22;100718.16;;;21.80;100.00
35647;BME280;28680;45.642;13.756;2023-08-07T08:07:49;100721.53;;;21.96;100.00
35647;BME280;28680;45.642;13.756;2023-08-07T08:10:15;100710.59;;;21.91;100.00
35647;BME280;28680;45.642;13.756;2023-08-07T08:12:41;100722.59;;;21.95;100.00
35647;BME280;28680;45.642;13.756;2023-08-07T08:15:07;100715.09;;;22.12;100.00
35647;BME280;28680;45.642;13.756;2023-08-07T08:17:33;100718.75;;;22.04;100.00
35647;BME280;28680;45.642;13.756;2023-08-07T08:19:59;100721.59;;;22.03;100.00
35647;BME280;28680;45.642;13.756;2023-08-07T08:22:25;100731.34;;;22.17;100.00
35647;BME280;28680;45.642;13.756;2023-08-07T08:24:51;100723.13;;;22.18;100.00
35647;BME280;28680;45.642;13.756;2023-08-07T08:27:18;100724.03;;;22.26;100.00
35647;BME280;28680;45.642;13.756;2023-08-07T08:29:44;100728.34;;;22.27;100.00
35647;BME280;28680;45.642;13.756;2023-08-07T08:32:11;100731.25;;;22.32;100.00
35647;BME280;28680;45.642;13.756;2023-08-07T08:34:37;100733.34;;;22.36;100.00
35647;BME280;28680;45.642;13.756;2023-08-07T08:37:03;100733.13;;;22.38;100.00
35647;BME280;28680;45.642;13.756;2023-08-07T08:39:31;100733.78;;;22.47;100.00
35647;BME280;28680;45.642;13.756;2023-08-07T08:41:58;100732.56;;;22.49;100.00
35647;BME280;28680;45.642;13.756;2023-08-07T08:44:25;100743.47;;;22.48;100.00
35647;BME280;28680;45.642;13.756;2023-08-07T08:46:52;100742.69;;;22.54;100.00
35647;BME280;28680;45.642;13.756;2023-08-07T08:49:29;100741.31;;;22.71;100.00
35647;BME280;28680;45.642;13.756;2023-08-07T08:51:56;100747.66;;;23.12;100.00
35647;BME280;28680;45.642;13.756;2023-08-07T08:54:23;100752.41;;;23.23;100.00
35647;BME280;28680;45.642;13.756;2023-08-07T08:56:50;100755.31;;;23.35;100.00
35647;BME280;28680;45.642;13.756;2023-08-07T08:59:16;100754.50;;;23.48;100.00
35647;BME280;28680;45.642;13.756;2023-08-07T09:01:46;100760.25;;;23.58;100.00
35647;BME280;28680;45.642;13.756;2023-08-07T09:04:12;100751.59;;;23.56;100.00
35647;BME280;28680;45.642;13.756;2023-08-07T09:06:39;100756.56;;;23.66;100.00
35647;BME280;28680;45.642;13.756;2023-08-07T09:09:06;100758.25;;;23.80;100.00
35647;BME280;28680;45.642;13.756;2023-08-07T09:11:34;100761.09;;;23.85;100.00
35647;BME280;28680;45.642;13.756;2023-08-07T09:14:02;100767.28;;;24.06;100.00
35647;BME280;28680;45.642;13.756;2023-08-07T09:16:30;100757.78;;;24.17;100.00
35647;BME280;28680;45.642;13.756;2023-08-07T09:18:56;100766.03;;;24.22;100.00
35647;BME280;28680;45.642;13.756;2023-08-07T09:21:22;100766.22;;;24.20;100.00
35647;BME280;28680;45.642;13.756;2023-08-07T09:23:48;100766.81;;;24.29;100.00
35647;BME280;28680;45.642;13.756;2023-08-07T09:26:22;100769.88;;;24.52;100.00
35647;BME280;28680;45.642;13.756;2023-08-07T09:28:55;100759.69;;;24.75;100.00
35647;BME280;28680;45.642;13.756;2023-08-07T09:31:22;100762.31;;;24.81;100.00
35647;BME280;28680;45.642;13.756;2023-08-07T09:33:52;100768.75;;;24.80;100.00
35647;BME280;28680;45.642;13.756;2023-08-07T09:36:18;100772.66;;;24.78;100.00
35647;BME280;28680;45.642;13.756;2023-08-07T09:38:49;100771.59;;;24.85;100.00
35647;BME280;28680;45.642;13.756;2023-08-07T09:41:19;100770.03;;;25.09;100.00
35647;BME280;28680;45.642;13.756;2023-08-07T09:43:45;100774.78;;;25.07;100.00
35647;BME280;28680;45.642;13.756;2023-08-07T09:46:12;100771.00;;;25.22;100.00
35647;BME280;28680;45.642;13.756;2023-08-07T09:48:42;100782.38;;;25.24;100.00
35647;BME280;28680;45.642;13.756;2023-08-07T09:51:09;100775.72;;;25.33;100.00
35647;BME280;28680;45.642;13.756;2023-08-07T09:53:35;100776.88;;;25.44;100.00
35647;BME280;28680;45.642;13.756;2023-08-07T09:56:02;100780.28;;;25.58;100.00
35647;BME280;28680;45.642;13.756;2023-08-07T09:58:29;100780.91;;;25.60;100.00
35647;BME280;28680;45.642;13.756;2023-08-07T10:00:55;100786.13;;;25.48;100.00
35647;BME280;28680;45.642;13.756;2023-08-07T10:03:26;100785.31;;;25.73;100.00
35647;BME280;28680;45.642;13.756;2023-08-07T10:05:52;100790.75;;;25.98;100.00
35647;BME280;28680;45.642;13.756;2023-08-07T10:08:18;100794.72;;;26.14;100.00
35647;BME280;28680;45.642;13.756;2023-08-07T10:10:44;100790.97;;;25.90;100.00
35647;BME280;28680;45.642;13.756;2023-08-07T10:13:15;100784.97;;;25.94;100.00
35647;BME280;28680;45.642;13.756;2023-08-07T10:15:41;100784.50;;;26.22;100.00
35647;BME280;28680;45.642;13.756;2023-08-07T10:18:11;100786.06;;;26.30;100.00
35647;BME280;28680;45.642;13.756;2023-08-07T10:20:38;100781.72;;;26.29;100.00
35647;BME280;28680;45.642;13.756;2023-08-07T10:23:09;100789.59;;;26.49;100.00
35647;BME280;28680;45.642;13.756;2023-08-07T10:25:41;100785.56;;;26.58;100.00
35647;BME280;28680;45.642;13.756;2023-08-07T10:28:13;100780.50;;;26.99;100.00
35647;BME280;28680;45.642;13.756;2023-08-07T10:30:42;100789.94;;;27.20;100.00
35647;BME280;28680;45.642;13.756;2023-08-07T10:33:10;100795.81;;;26.87;100.00
35647;BME280;28680;45.642;13.756;2023-08-07T10:35:37;100790.84;;;27.02;100.00
35647;BME280;28680;45.642;13.756;2023-08-07T10:38:10;100792.84;;;27.07;100.00
35647;BME280;28680;45.642;13.756;2023-08-07T10:43:30;100792.44;;;27.64;100.00
35647;BME280;28680;45.642;13.756;2023-08-07T10:46:20;100791.03;;;27.61;100.00
35647;BME280;28680;45.642;13.756;2023-08-07T10:48:55;100797.91;;;27.45;100.00
35647;BME280;28680;45.642;13.756;2023-08-07T10:51:29;100787.75;;;27.71;100.00
35647;BME280;28680;45.642;13.756;2023-08-07T10:53:58;100796.94;;;27.93;100.00
35647;BME280;28680;45.642;13.756;2023-08-07T10:56:34;100787.16;;;27.69;100.00
35647;BME280;28680;45.642;13.756;2023-08-07T10:59:09;100790.41;;;28.13;100.00
35647;BME280;28680;45.642;13.756;2023-08-07T11:04:13;100789.44;;;28.19;100.00
35647;BME280;28680;45.642;13.756;2023-08-07T11:06:41;100792.50;;;28.23;100.00
35647;BME280;28680;45.642;13.756;2023-08-07T11:09:09;100786.38;;;28.27;100.00
35647;BME280;28680;45.642;13.756;2023-08-07T11:14:10;100788.25;;;28.62;100.00
35647;BME280;28680;45.642;13.756;2023-08-07T11:16:37;100788.09;;;28.97;100.00
35647;BME280;28680;45.642;13.756;2023-08-07T11:19:04;100791.38;;;29.00;100.00
35647;BME280;28680;45.642;13.756;2023-08-07T11:21:33;100786.75;;;29.12;100.00
35647;BME280;28680;45.642;13.756;2023-08-07T11:24:00;100783.78;;;29.25;100.00
35647;BME280;28680;45.642;13.756;2023-08-07T11:26:26;100782.97;;;29.25;100.00
35647;BME280;28680;45.642;13.756;2023-08-07T11:28:55;100778.06;;;29.39;100.00
35647;BME280;28680;45.642;13.756;2023-08-07T11:31:22;100774.91;;;29.13;100.00
35647;BME280;28680;45.642;13.756;2023-08-07T11:33:56;100786.53;;;29.13;100.00
35647;BME280;28680;45.642;13.756;2023-08-07T11:36:24;100781.31;;;29.24;100.00
35647;BME280;28680;45.642;13.756;2023-08-07T11:38:50;100787.28;;;29.26;100.00
35647;BME280;28680;45.642;13.756;2023-08-07T11:41:17;100784.50;;;29.21;100.00
35647;BME280;28680;45.642;13.756;2023-08-07T11:43:44;100779.53;;;29.46;100.00
35647;BME280;28680;45.642;13.756;2023-08-07T11:46:12;100788.78;;;29.50;100.00
35647;BME280;28680;45.642;13.756;2023-08-07T11:48:41;100776.50;;;29.60;100.00
35647;BME280;28680;45.642;13.756;2023-08-07T11:51:08;100769.41;;;29.87;100.00
35647;BME280;28680;45.642;13.756;2023-08-07T11:53:37;100772.81;;;29.83;100.00
35647;BME280;28680;45.642;13.756;2023-08-07T11:56:09;100777.41;;;29.65;100.00
35647;BME280;28680;45.642;13.756;2023-08-07T11:58:40;100774.91;;;29.76;100.00
35647;BME280;28680;45.642;13.756;2023-08-07T12:01:16;100768.25;;;29.66;100.00
35647;BME280;28680;45.642;13.756;2023-08-07T12:06:20;100785.63;;;29.87;100.00
35647;BME280;28680;45.642;13.756;2023-08-07T12:08:50;100775.78;;;29.98;100.00
35647;BME280;28680;45.642;13.756;2023-08-07T12:11:19;100779.72;;;29.73;100.00
35647;BME280;28680;45.642;13.756;2023-08-07T12:13:47;100774.53;;;29.72;100.00
35647;BME280;28680;45.642;13.756;2023-08-07T12:16:15;100773.97;;;29.70;100.00
35647;BME280;28680;45.642;13.756;2023-08-07T12:18:49;100772.19;;;29.92;100.00
35647;BME280;28680;45.642;13.756;2023-08-07T12:21:20;100773.31;;;29.63;100.00
35647;BME280;28680;45.642;13.756;2023-08-07T12:23:46;100768.91;;;29.73;100.00
35647;BME280;28680;45.642;13.756;2023-08-07T12:26:14;100768.69;;;29.29;100.00
35647;BME280;28680;45.642;13.756;2023-08-07T12:28:40;100771.59;;;29.40;100.00
35647;BME280;28680;45.642;13.756;2023-08-07T12:31:06;100772.44;;;29.91;100.00
35647;BME280;28680;45.642;13.756;2023-08-07T12:33:35;100770.31;;;30.15;100.00
35647;BME280;28680;45.642;13.756;2023-08-07T12:36:01;100768.53;;;30.04;100.00
35647;BME280;28680;45.642;13.756;2023-08-07T12:38:28;100764.47;;;29.84;100.00
35647;BME280;28680;45.642;13.756;2023-08-07T12:40:55;100768.63;;;29.92;100.00
35647;BME280;28680;45.642;13.756;2023-08-07T12:43:21;100768.56;;;30.26;100.00